createdAt,value
2017-12-11T00:01:40.099Z,1.02
2017-12-11T00:04:07.694Z,1.20
2017-12-11T00:06:35.282Z,1.20
2017-12-11T00:09:02.892Z,1.15
2017-12-11T00:11:30.483Z,1.10
2017-12-11T00:13:58.083Z,1.17
2017-12-11T00:16:25.640Z,1.05
2017-12-11T00:18:53.993Z,1.02
2017-12-11T00:21:21.569Z,1.30
2017-12-11T00:23:49.931Z,1.20
2017-12-11T00:26:17.497Z,1.12
2017-12-11T00:28:45.086Z,1.15
2017-12-11T00:31:12.649Z,1.05
2017-12-11T00:33:40.244Z,1.30
2017-12-11T00:36:07.825Z,1.10
2017-12-11T00:38:35.394Z,1.00
2017-12-11T00:41:02.991Z,1.37
2017-12-11T00:43:30.552Z,1.10
2017-12-11T00:45:58.104Z,1.20
2017-12-11T00:48:25.721Z,1.20
2017-12-11T00:50:53.266Z,1.20
2017-12-11T00:53:20.891Z,1.20
2017-12-11T00:55:48.460Z,1.00
2017-12-11T00:58:16.024Z,1.00
2017-12-11T01:00:43.628Z,1.00
2017-12-11T01:03:11.184Z,1.10
2017-12-11T01:05:38.766Z,1.35
2017-12-11T01:08:07.142Z,1.05
2017-12-11T01:10:34.708Z,1.10
2017-12-11T01:13:02.325Z,1.27
2017-12-11T01:15:29.877Z,0.98
2017-12-11T01:17:57.469Z,1.10
2017-12-11T01:20:25.034Z,1.15
2017-12-11T01:22:52.642Z,1.10
2017-12-11T01:25:20.231Z,0.90
2017-12-11T01:27:47.838Z,1.20
2017-12-11T01:30:15.421Z,1.20
2017-12-11T01:32:42.983Z,1.20
2017-12-11T01:35:10.589Z,1.20
2017-12-11T01:37:38.190Z,0.90
2017-12-11T01:40:06.565Z,1.00
2017-12-11T01:42:34.896Z,0.80
2017-12-11T01:45:03.278Z,0.98
2017-12-11T01:47:30.881Z,0.90
2017-12-11T01:49:58.441Z,1.30
2017-12-11T01:52:26.073Z,1.10
2017-12-11T01:54:53.673Z,0.90
2017-12-11T01:57:21.225Z,1.10
2017-12-11T01:59:49.596Z,0.90
2017-12-11T02:02:17.938Z,1.20
2017-12-11T02:04:45.561Z,1.08
2017-12-11T02:07:13.147Z,1.10
2017-12-11T02:09:40.727Z,0.90
2017-12-11T02:12:08.337Z,0.93
2017-12-11T02:14:36.671Z,1.10
2017-12-11T02:17:04.277Z,1.00
2017-12-11T02:19:32.610Z,1.00
2017-12-11T02:22:00.212Z,1.10
2017-12-11T02:24:28.574Z,0.90
2017-12-11T02:26:56.934Z,1.20
2017-12-11T02:29:24.532Z,1.00
2017-12-11T02:31:52.853Z,1.00
2017-12-11T02:34:20.475Z,1.08
2017-12-11T02:36:48.805Z,1.00
2017-12-11T02:39:16.424Z,1.00
2017-12-11T02:41:44.788Z,1.10
2017-12-11T02:44:13.141Z,0.90
2017-12-11T02:46:40.688Z,1.05
2017-12-11T02:49:08.317Z,1.20
2017-12-11T02:51:35.922Z,1.02
2017-12-11T02:54:03.533Z,1.15
2017-12-11T02:56:31.109Z,2.45
2017-12-11T02:58:58.708Z,0.80
2017-12-11T03:01:26.295Z,1.15
2017-12-11T03:03:54.635Z,1.30
2017-12-11T03:06:22.241Z,1.60
2017-12-11T03:08:50.585Z,1.10
2017-12-11T03:11:18.161Z,1.00
2017-12-11T03:13:46.535Z,1.05
2017-12-11T03:16:14.130Z,1.00
2017-12-11T03:18:41.718Z,0.95
2017-12-11T03:21:09.256Z,1.00
2017-12-11T03:23:36.846Z,1.00
2017-12-11T03:26:04.781Z,1.10
2017-12-11T03:28:32.378Z,1.20
2017-12-11T03:30:59.936Z,1.23
2017-12-11T03:33:27.548Z,0.82
2017-12-11T03:35:55.906Z,1.15
2017-12-11T03:38:23.473Z,1.25
2017-12-11T03:40:51.866Z,0.95
2017-12-11T03:43:20.206Z,1.00
2017-12-11T03:45:47.754Z,1.10
2017-12-11T03:48:15.356Z,0.90
2017-12-11T03:50:43.698Z,0.98
2017-12-11T03:53:11.302Z,1.10
2017-12-11T03:55:39.630Z,1.35
2017-12-11T03:58:07.252Z,1.25
2017-12-11T04:00:34.838Z,1.30
2017-12-11T04:03:02.402Z,1.30
2017-12-11T04:05:30.007Z,1.10
2017-12-11T04:07:57.572Z,1.05
2017-12-11T04:10:25.128Z,1.15
2017-12-11T04:12:52.727Z,1.35
2017-12-11T04:15:20.283Z,1.10
2017-12-11T04:17:47.889Z,1.10
2017-12-11T04:20:15.479Z,1.25
2017-12-11T04:22:43.079Z,1.00
2017-12-11T04:25:11.225Z,1.08
2017-12-11T04:27:39.610Z,1.10
2017-12-11T04:30:09.702Z,1.60
2017-12-11T04:32:37.257Z,1.70
2017-12-11T04:35:04.857Z,1.35
2017-12-11T04:37:33.210Z,1.70
2017-12-11T04:40:00.760Z,1.77
2017-12-11T04:42:28.345Z,2.00
2017-12-11T04:44:56.724Z,1.85
2017-12-11T04:47:25.099Z,2.42
2017-12-11T04:49:53.461Z,1.67
2017-12-11T04:52:21.026Z,1.92
2017-12-11T04:54:48.628Z,1.60
2017-12-11T04:57:16.192Z,1.90
2017-12-11T04:59:43.786Z,1.50
2017-12-11T05:02:11.357Z,1.90
2017-12-11T05:04:38.948Z,1.77
2017-12-11T05:07:07.300Z,2.05
2017-12-11T05:09:34.853Z,2.00
2017-12-11T05:12:02.442Z,2.05
2017-12-11T05:14:30.831Z,1.95
2017-12-11T05:16:59.156Z,1.98
2017-12-11T05:19:26.696Z,2.65
2017-12-11T05:21:54.298Z,2.03
2017-12-11T05:24:27.492Z,2.35
2017-12-11T05:26:55.126Z,2.50
2017-12-11T05:29:22.675Z,2.22
2017-12-11T05:31:50.228Z,1.70
2017-12-11T05:34:17.819Z,1.55
2017-12-11T05:36:45.418Z,1.90
2017-12-11T05:39:13.799Z,1.70
2017-12-11T05:41:41.388Z,1.48
2017-12-11T05:44:08.964Z,1.20
2017-12-11T05:46:36.531Z,1.85
2017-12-11T05:49:04.121Z,1.40
2017-12-11T05:51:31.712Z,1.50
2017-12-11T05:53:59.271Z,2.12
2017-12-11T05:56:27.653Z,1.70
2017-12-11T05:58:55.240Z,2.20
2017-12-11T06:01:22.924Z,1.67
2017-12-11T06:03:50.496Z,1.77
2017-12-11T06:06:18.072Z,1.92
2017-12-11T06:08:45.679Z,1.55
2017-12-11T06:11:13.258Z,1.60
2017-12-11T06:13:40.839Z,1.42
2017-12-11T06:16:08.378Z,1.02
2017-12-11T06:18:35.973Z,1.27
2017-12-11T06:21:03.519Z,1.23
2017-12-11T06:23:31.062Z,1.48
2017-12-11T06:25:58.640Z,1.65
2017-12-11T06:28:26.346Z,2.37
2017-12-11T06:30:54.673Z,1.90
2017-12-11T06:33:22.308Z,2.40
2017-12-11T06:35:49.868Z,2.60
2017-12-11T06:38:17.936Z,3.22
2017-12-11T06:40:45.601Z,2.40
2017-12-11T06:43:13.180Z,2.33
2017-12-11T06:45:40.744Z,2.90
2017-12-11T06:48:08.348Z,2.80
2017-12-11T06:50:36.677Z,2.75
2017-12-11T06:53:04.276Z,2.28
2017-12-11T06:55:31.842Z,2.62
2017-12-11T06:57:59.385Z,2.55
2017-12-11T07:00:27.311Z,2.55
2017-12-11T07:02:56.023Z,2.20
2017-12-11T07:05:23.979Z,2.35
2017-12-11T07:07:52.820Z,2.30
2017-12-11T07:10:20.824Z,2.15
2017-12-11T07:12:48.769Z,2.47
2017-12-11T07:15:16.624Z,2.08
2017-12-11T07:17:44.448Z,2.42
2017-12-11T07:20:12.560Z,3.17
2017-12-11T07:22:40.524Z,2.55
2017-12-11T07:25:08.468Z,2.67
2017-12-11T07:27:36.880Z,2.92
2017-12-11T07:30:04.866Z,3.10
2017-12-11T07:32:32.502Z,2.75
2017-12-11T07:35:00.139Z,2.10
2017-12-11T07:37:27.732Z,1.87
2017-12-11T07:39:55.319Z,2.12
2017-12-11T07:42:22.933Z,3.20
2017-12-11T07:44:50.585Z,1.60
2017-12-11T07:47:18.278Z,2.03
2017-12-11T07:49:46.646Z,1.67
2017-12-11T07:52:14.332Z,1.90
2017-12-11T07:54:42.340Z,1.80
2017-12-11T07:57:09.916Z,1.62
2017-12-11T07:59:37.506Z,2.30
2017-12-11T08:02:05.090Z,1.58
2017-12-11T08:04:33.494Z,2.05
2017-12-11T08:07:01.214Z,1.70
2017-12-11T08:09:28.819Z,1.90
2017-12-11T08:11:56.382Z,2.00
2017-12-11T08:14:24.104Z,2.15
2017-12-11T08:16:51.690Z,2.17
2017-12-11T08:19:20.045Z,2.30
2017-12-11T08:21:47.605Z,3.47
2017-12-11T08:24:15.212Z,5.93
2017-12-11T08:26:42.834Z,5.80
2017-12-11T08:29:10.409Z,5.28
2017-12-11T08:31:38.813Z,20.10
2017-12-11T08:34:06.540Z,2.50
2017-12-11T08:36:34.915Z,2.25
2017-12-11T08:39:02.555Z,2.10
2017-12-11T08:41:30.168Z,2.70
2017-12-11T08:43:57.910Z,2.62
2017-12-11T08:46:25.538Z,2.62
2017-12-11T08:48:53.101Z,2.80
2017-12-11T08:51:21.054Z,2.50
2017-12-11T08:53:48.656Z,2.00
2017-12-11T08:56:16.565Z,1.60
2017-12-11T08:58:44.161Z,2.03
2017-12-11T09:01:11.909Z,2.47
2017-12-11T09:03:39.646Z,2.22
2017-12-11T09:06:07.230Z,1.83
2017-12-11T09:08:35.562Z,1.80
2017-12-11T09:11:03.203Z,1.80
2017-12-11T09:13:30.823Z,2.00
2017-12-11T09:15:58.407Z,1.70
2017-12-11T09:18:25.985Z,1.67
2017-12-11T09:20:53.602Z,1.52
2017-12-11T09:23:21.189Z,2.47
2017-12-11T09:25:48.773Z,1.90
2017-12-11T09:28:16.377Z,1.70
2017-12-11T09:30:43.944Z,2.12
2017-12-11T09:33:11.508Z,1.80
2017-12-11T09:35:39.142Z,1.48
2017-12-11T09:38:06.703Z,1.77
2017-12-11T09:40:35.027Z,2.20
2017-12-11T09:43:02.620Z,3.10
2017-12-11T09:45:30.302Z,3.08
2017-12-11T09:47:57.979Z,2.75
2017-12-11T09:50:25.593Z,3.53
2017-12-11T09:52:53.274Z,3.25
2017-12-11T09:55:20.872Z,3.17
2017-12-11T09:57:48.559Z,4.30
2017-12-11T10:00:16.252Z,3.47
2017-12-11T10:02:43.877Z,3.10
2017-12-11T10:05:11.797Z,3.45
2017-12-11T10:07:39.431Z,4.82
2017-12-11T10:10:07.146Z,5.05
2017-12-11T10:12:34.808Z,4.45
2017-12-11T10:15:02.439Z,4.68
2017-12-11T10:17:30.129Z,7.22
2017-12-11T10:19:58.557Z,5.60
2017-12-11T10:22:32.882Z,5.60
2017-12-11T10:25:13.508Z,4.50
2017-12-11T10:27:43.506Z,3.97
2017-12-11T10:30:11.119Z,3.83
2017-12-11T10:32:38.764Z,3.08
2017-12-11T10:35:06.550Z,4.90
2017-12-11T10:37:34.235Z,4.20
2017-12-11T10:40:01.897Z,4.47
2017-12-11T10:42:30.789Z,4.30
2017-12-11T10:44:58.462Z,4.03
2017-12-11T10:47:26.169Z,3.53
2017-12-11T10:49:53.796Z,3.55
2017-12-11T10:52:22.329Z,4.12
2017-12-11T10:54:49.956Z,4.40
2017-12-11T10:57:18.353Z,3.92
2017-12-11T10:59:45.939Z,3.62
2017-12-11T11:02:13.991Z,3.92
2017-12-11T11:04:41.596Z,3.50
2017-12-11T11:07:09.193Z,3.72
2017-12-11T11:09:36.818Z,3.37
2017-12-11T11:12:04.382Z,4.37
2017-12-11T11:14:32.059Z,3.83
2017-12-11T11:17:00.437Z,4.35
2017-12-11T11:19:31.700Z,4.15
2017-12-11T11:21:59.925Z,10.77
2017-12-11T11:24:27.538Z,7.30
2017-12-11T11:26:55.929Z,6.97
2017-12-11T11:29:23.527Z,6.43
2017-12-11T11:32:05.422Z,6.37
2017-12-11T11:34:37.309Z,5.03
2017-12-11T11:37:04.952Z,6.28
2017-12-11T11:39:32.534Z,5.80
2017-12-11T11:42:00.102Z,6.55
2017-12-11T11:44:28.366Z,6.37
2017-12-11T11:46:56.009Z,8.20
2017-12-11T11:49:23.616Z,6.65
2017-12-11T11:51:51.214Z,6.87
2017-12-11T11:54:18.842Z,7.05
2017-12-11T11:56:46.477Z,7.35
2017-12-11T11:59:14.243Z,7.57
2017-12-11T12:01:41.857Z,6.90
2017-12-11T12:04:09.507Z,6.22
2017-12-11T12:06:37.323Z,6.60
2017-12-11T12:09:04.933Z,7.78
2017-12-11T12:11:32.489Z,7.12
2017-12-11T12:14:00.135Z,6.70
2017-12-11T12:16:28.540Z,8.05
2017-12-11T12:18:56.281Z,8.25
2017-12-11T12:21:23.898Z,8.77
2017-12-11T12:23:51.557Z,7.90
2017-12-11T12:26:19.220Z,8.65
2017-12-11T12:28:46.912Z,8.52
2017-12-11T12:31:14.518Z,9.13
2017-12-11T12:33:42.282Z,44.33
2017-12-11T12:36:09.878Z,16.58
2017-12-11T12:38:37.429Z,7.65
2017-12-11T12:41:05.302Z,7.15
2017-12-11T12:43:32.941Z,6.87
2017-12-11T12:46:00.655Z,7.05
2017-12-11T12:48:28.343Z,6.25
2017-12-11T12:50:56.000Z,7.07
2017-12-11T12:53:23.676Z,8.13
2017-12-11T12:55:51.341Z,7.20
2017-12-11T12:58:21.374Z,8.85
2017-12-11T13:00:48.967Z,7.65
2017-12-11T13:03:16.586Z,8.82
2017-12-11T13:05:44.163Z,9.77
2017-12-11T13:08:13.653Z,9.50
2017-12-11T13:10:41.334Z,9.32
2017-12-11T13:13:09.690Z,9.27
2017-12-11T13:15:39.124Z,11.00
2017-12-11T13:18:07.592Z,11.15
2017-12-11T13:20:35.558Z,12.70
2017-12-11T13:23:03.378Z,11.68
2017-12-11T13:25:31.959Z,13.10
2017-12-11T13:28:00.309Z,12.00
2017-12-11T13:30:31.152Z,17.10
2017-12-11T13:33:00.975Z,15.02
2017-12-11T13:35:29.561Z,13.43
2017-12-11T13:37:57.214Z,12.32
2017-12-11T13:40:25.275Z,10.65
2017-12-11T13:42:52.894Z,11.75
2017-12-11T13:45:20.565Z,12.32
2017-12-11T13:47:53.763Z,12.05
2017-12-11T13:50:21.446Z,13.13
2017-12-11T13:52:49.017Z,12.45
2017-12-11T13:55:18.638Z,11.45
2017-12-11T13:57:46.278Z,11.80
2017-12-11T14:00:24.516Z,10.23
2017-12-11T14:02:52.665Z,11.25
2017-12-11T14:05:24.593Z,12.48
2017-12-11T14:07:52.214Z,10.23
2017-12-11T14:10:19.804Z,10.23
2017-12-11T14:12:48.402Z,8.77
2017-12-11T14:15:16.730Z,8.75
2017-12-11T14:17:44.379Z,9.60
2017-12-11T14:20:12.030Z,9.27
2017-12-11T14:22:39.690Z,10.82
2017-12-11T14:25:07.312Z,9.90
2017-12-11T14:27:35.017Z,10.48
2017-12-11T14:30:03.471Z,10.55
2017-12-11T14:32:31.174Z,10.10
2017-12-11T14:34:58.790Z,10.55
2017-12-11T14:37:27.185Z,10.02
2017-12-11T14:39:54.845Z,10.20
2017-12-11T14:42:22.486Z,9.18
2017-12-11T14:44:51.748Z,9.50
2017-12-11T14:47:21.123Z,9.02
2017-12-11T14:49:50.676Z,9.07
2017-12-11T14:52:20.407Z,8.27
2017-12-11T14:54:50.132Z,8.18
2017-12-11T14:57:19.044Z,8.30
2017-12-11T14:59:48.858Z,4.70
2017-12-11T15:02:18.114Z,4.65
2017-12-11T15:04:47.354Z,5.45
2017-12-11T15:07:17.540Z,4.70
2017-12-11T15:09:46.778Z,4.53
2017-12-11T15:12:15.998Z,4.68
2017-12-11T15:14:44.173Z,4.40
2017-12-11T15:17:15.061Z,4.22
2017-12-11T15:19:42.978Z,6.40
2017-12-11T15:22:10.562Z,4.62
2017-12-11T15:24:38.666Z,4.93
2017-12-11T15:27:06.286Z,4.05
2017-12-11T15:29:33.861Z,4.28
2017-12-11T15:32:02.852Z,3.97
2017-12-11T15:34:31.251Z,4.10
2017-12-11T15:36:59.629Z,4.32
2017-12-11T15:39:28.025Z,4.05
2017-12-11T15:41:55.696Z,4.75
2017-12-11T15:44:23.305Z,6.93
2017-12-11T15:46:50.888Z,7.07
2017-12-11T15:49:18.505Z,6.82
2017-12-11T15:51:46.127Z,9.70
2017-12-11T15:54:14.492Z,8.57
2017-12-11T15:56:42.314Z,6.45
2017-12-11T15:59:09.970Z,6.18
2017-12-11T16:01:38.278Z,4.75
2017-12-11T16:04:05.885Z,5.00
2017-12-11T16:06:34.265Z,3.50
2017-12-11T16:09:01.886Z,2.60
2017-12-11T16:11:29.473Z,2.42
2017-12-11T16:13:57.860Z,2.15
2017-12-11T16:16:26.193Z,2.53
2017-12-11T16:18:53.757Z,2.22
2017-12-11T16:21:21.433Z,2.75
2017-12-11T16:23:49.025Z,3.92
2017-12-11T16:26:17.408Z,3.30
2017-12-11T16:28:45.137Z,2.90
2017-12-11T16:31:14.713Z,3.30
2017-12-11T16:33:42.381Z,3.25
2017-12-11T16:36:10.039Z,3.12
2017-12-11T16:38:37.684Z,2.70
2017-12-11T16:41:08.151Z,2.65
2017-12-11T16:43:35.794Z,2.50
2017-12-11T16:46:03.417Z,2.30
2017-12-11T16:48:31.038Z,2.20
2017-12-11T16:50:58.663Z,2.55
2017-12-11T16:53:26.343Z,2.17
2017-12-11T16:55:53.981Z,1.80
2017-12-11T16:58:21.565Z,2.10
2017-12-11T17:00:49.214Z,1.80
2017-12-11T17:03:17.606Z,2.87
2017-12-11T17:05:45.189Z,2.00
2017-12-11T17:08:12.897Z,2.00
2017-12-11T17:10:40.492Z,2.00
2017-12-11T17:13:08.867Z,1.62
2017-12-11T17:15:37.471Z,1.70
2017-12-11T17:18:07.296Z,1.92
2017-12-11T17:20:36.794Z,1.75
2017-12-11T17:23:06.981Z,2.08
2017-12-11T17:25:36.408Z,2.10
2017-12-11T17:28:05.679Z,2.60
2017-12-11T17:30:35.250Z,2.37
2017-12-11T17:33:05.021Z,3.62
2017-12-11T17:35:41.448Z,2.35
2017-12-11T17:38:11.310Z,2.47
2017-12-11T17:40:41.972Z,2.70
2017-12-11T17:43:11.819Z,2.30
2017-12-11T17:45:43.071Z,2.50
2017-12-11T17:48:13.085Z,2.22
2017-12-11T17:50:43.173Z,2.15
2017-12-11T17:53:13.018Z,2.03
2017-12-11T17:55:43.013Z,2.00
2017-12-11T17:58:13.703Z,2.05
2017-12-11T18:00:44.489Z,2.20
2017-12-11T18:03:15.087Z,2.20
2017-12-11T18:05:44.905Z,1.92
2017-12-11T18:08:15.219Z,2.10
2017-12-11T18:10:45.397Z,2.20
2017-12-11T18:13:16.144Z,2.20
2017-12-11T18:15:46.560Z,2.40
2017-12-11T18:18:17.008Z,2.50
2017-12-11T18:20:51.201Z,1.98
2017-12-11T18:23:21.306Z,1.73
2017-12-11T18:25:51.512Z,2.10
2017-12-11T18:28:21.956Z,2.35
2017-12-11T18:30:51.925Z,2.00
2017-12-11T18:33:22.345Z,2.20
2017-12-11T18:35:52.467Z,2.37
2017-12-11T18:38:22.341Z,1.95
2017-12-11T18:40:52.506Z,2.17
2017-12-11T18:43:26.258Z,1.67
2017-12-11T18:45:56.011Z,2.70
2017-12-11T18:48:25.797Z,1.80
2017-12-11T18:50:55.341Z,1.65
2017-12-11T18:53:25.086Z,1.55
2017-12-11T18:55:54.047Z,2.10
2017-12-11T18:58:23.614Z,2.10
2017-12-11T19:00:53.560Z,1.37
2017-12-11T19:03:23.172Z,1.42
2017-12-11T19:05:53.470Z,1.48
2017-12-11T19:08:24.186Z,1.48
2017-12-11T19:10:54.732Z,1.42
2017-12-11T19:13:24.866Z,1.50
2017-12-11T19:15:54.366Z,2.03
2017-12-11T19:18:24.866Z,1.55
2017-12-11T19:20:55.335Z,1.60
2017-12-11T19:23:24.949Z,1.67
2017-12-11T19:25:54.864Z,1.48
2017-12-11T19:28:24.500Z,1.75
2017-12-11T19:30:53.797Z,1.50
2017-12-11T19:33:23.492Z,1.67
2017-12-11T19:35:53.690Z,1.80
2017-12-11T19:38:23.170Z,8.50
2017-12-11T19:40:53.592Z,1.60
2017-12-11T19:43:24.142Z,1.50
2017-12-11T19:45:54.502Z,1.40
2017-12-11T19:48:24.143Z,1.10
2017-12-11T19:50:53.439Z,1.92
2017-12-11T19:53:22.786Z,1.40
2017-12-11T19:55:51.884Z,1.90
2017-12-11T19:58:20.796Z,1.70
2017-12-11T20:00:50.325Z,1.90
2017-12-11T20:03:19.330Z,1.20
2017-12-11T20:05:49.428Z,1.60
2017-12-11T20:08:18.879Z,1.60
2017-12-11T20:10:48.586Z,1.20
2017-12-11T20:13:18.789Z,1.30
2017-12-11T20:15:48.472Z,1.55
2017-12-11T20:18:18.012Z,1.70
2017-12-11T20:20:48.125Z,1.35
2017-12-11T20:23:18.064Z,1.60
2017-12-11T20:25:48.317Z,1.52
2017-12-11T20:28:18.854Z,1.50
2017-12-11T20:30:47.563Z,1.80
2017-12-11T20:33:17.200Z,1.48
2017-12-11T20:35:46.883Z,1.80
2017-12-11T20:38:16.510Z,1.65
2017-12-11T20:40:46.291Z,1.80
2017-12-11T20:43:15.719Z,1.20
2017-12-11T20:45:45.154Z,1.55
2017-12-11T20:48:15.650Z,1.95
2017-12-11T20:50:45.202Z,1.62
2017-12-11T20:53:14.732Z,1.75
2017-12-11T20:55:44.984Z,1.90
2017-12-11T20:58:14.640Z,1.70
2017-12-11T21:00:44.120Z,1.50
2017-12-11T21:03:13.635Z,1.37
2017-12-11T21:05:43.958Z,1.50
2017-12-11T21:08:13.518Z,1.48
2017-12-11T21:10:42.391Z,1.40
2017-12-11T21:13:11.132Z,1.55
2017-12-11T21:15:40.091Z,1.50
2017-12-11T21:18:09.364Z,1.70
2017-12-11T21:20:39.006Z,1.00
2017-12-11T21:23:09.028Z,1.50
2017-12-11T21:25:37.969Z,1.90
2017-12-11T21:28:07.610Z,2.00
2017-12-11T21:30:36.340Z,1.40
2017-12-11T21:33:05.824Z,1.27
2017-12-11T21:35:37.146Z,1.30
2017-12-11T21:38:06.051Z,1.15
2017-12-11T21:40:35.347Z,2.10
2017-12-11T21:43:04.763Z,1.40
2017-12-11T21:45:34.236Z,1.30
2017-12-11T21:48:04.211Z,1.50
2017-12-11T21:50:34.077Z,1.50
2017-12-11T21:53:03.689Z,1.58
2017-12-11T21:55:32.417Z,1.30
2017-12-11T21:58:01.143Z,1.20
2017-12-11T22:00:29.834Z,1.20
2017-12-11T22:02:57.460Z,1.17
2017-12-11T22:05:25.058Z,1.30
2017-12-11T22:07:55.733Z,1.30
2017-12-11T22:10:23.448Z,1.20
2017-12-11T22:12:51.349Z,1.40
2017-12-11T22:15:19.025Z,1.40
2017-12-11T22:17:46.795Z,1.20
2017-12-11T22:20:14.457Z,1.20
2017-12-11T22:22:42.333Z,1.33
2017-12-11T22:25:09.900Z,1.40
2017-12-11T22:27:37.536Z,1.20
2017-12-11T22:30:05.170Z,1.40
2017-12-11T22:32:32.974Z,1.33
2017-12-11T22:35:01.390Z,1.20
2017-12-11T22:37:29.896Z,1.40
2017-12-11T22:39:57.614Z,1.27
2017-12-11T22:42:25.251Z,1.33
2017-12-11T22:44:52.917Z,1.15
2017-12-11T22:47:20.536Z,1.50
2017-12-11T22:49:48.140Z,1.35
2017-12-11T22:52:15.825Z,1.65
2017-12-11T22:54:43.543Z,1.20
2017-12-11T22:57:11.109Z,1.33
2017-12-11T22:59:38.825Z,1.42
2017-12-11T23:02:06.416Z,1.27
2017-12-11T23:04:34.935Z,1.17
2017-12-11T23:07:02.803Z,1.10
2017-12-11T23:09:30.699Z,1.73
2017-12-11T23:11:58.326Z,1.40
2017-12-11T23:14:25.963Z,1.50
2017-12-11T23:16:53.544Z,1.35
2017-12-11T23:19:21.233Z,1.40
2017-12-11T23:21:48.830Z,1.33
2017-12-11T23:24:17.529Z,1.30
2017-12-11T23:26:45.261Z,1.37
2017-12-11T23:29:12.959Z,1.52
2017-12-11T23:31:40.760Z,1.70
2017-12-11T23:34:08.718Z,1.58
2017-12-11T23:36:36.483Z,1.40
2017-12-11T23:39:04.918Z,1.33
2017-12-11T23:41:32.478Z,1.30
2017-12-11T23:44:00.210Z,1.42
2017-12-11T23:46:27.838Z,1.20
2017-12-11T23:48:55.491Z,1.30
2017-12-11T23:51:23.111Z,1.23
2017-12-11T23:53:51.565Z,1.48
2017-12-11T23:56:19.213Z,1.30
2017-12-11T23:58:46.864Z,1.45
